createdAt,value
2019-04-22T00:02:40.101Z,11.10
2019-04-22T00:05:15.598Z,11.00
2019-04-22T00:08:01.655Z,11.00
2019-04-22T00:10:45.329Z,11.00
2019-04-22T00:13:06.729Z,11.00
2019-04-22T00:15:37.112Z,11.00
2019-04-22T00:18:16.566Z,11.00
2019-04-22T00:20:50.426Z,11.00
2019-04-22T00:23:20.348Z,11.00
2019-04-22T00:25:57.328Z,11.00
2019-04-22T00:28:21.678Z,11.00
2019-04-22T00:31:02.837Z,11.00
2019-04-22T00:33:34.301Z,10.90
2019-04-22T00:36:14.968Z,10.90
2019-04-22T00:38:44.431Z,10.90
2019-04-22T00:41:16.679Z,11.00
2019-04-22T00:43:48.067Z,11.00
2019-04-22T00:46:19.589Z,11.00
2019-04-22T00:49:06.441Z,11.10
2019-04-22T00:51:47.416Z,11.10
2019-04-22T00:53:57.861Z,11.10
2019-04-22T00:56:24.666Z,11.10
2019-04-22T00:59:01.626Z,11.10
2019-04-22T01:01:31.952Z,11.10
2019-04-22T01:06:36.475Z,11.10
2019-04-22T01:09:11.241Z,11.10
2019-04-22T01:11:37.377Z,11.10
2019-04-22T01:14:19.709Z,11.10
2019-04-22T01:16:52.107Z,11.10
2019-04-22T01:19:27.630Z,11.10
2019-04-22T01:21:52.798Z,11.00
2019-04-22T01:24:22.102Z,11.00
2019-04-22T01:26:56.273Z,10.90
2019-04-22T01:29:22.576Z,10.90
2019-04-22T01:31:43.838Z,10.80
2019-04-22T01:34:28.888Z,10.80
2019-04-22T01:37:03.519Z,10.70
2019-04-22T01:39:45.522Z,10.60
2019-04-22T01:42:37.661Z,10.60
2019-04-22T01:45:07.249Z,10.50
2019-04-22T01:47:24.824Z,10.50
2019-04-22T01:49:55.994Z,10.40
2019-04-22T02:11:24.090Z,10.10
2019-04-22T02:13:49.809Z,10.10
2019-04-22T02:16:23.112Z,10.00
2019-04-22T02:18:53.095Z,10.00
2019-04-22T02:21:21.550Z,10.00
2019-04-22T02:24:00.627Z,10.00
2019-04-22T02:26:31.292Z,9.90
2019-04-22T02:29:01.999Z,9.90
2019-04-22T02:31:44.172Z,9.90
2019-04-22T02:34:14.100Z,9.80
2019-04-22T02:36:43.262Z,9.70
2019-04-22T02:44:26.311Z,9.60
2019-04-22T02:49:39.735Z,9.50
2019-04-22T02:51:53.955Z,9.40
2019-04-22T02:54:43.535Z,9.40
2019-04-22T02:57:19.375Z,9.40
2019-04-22T03:02:12.206Z,9.30
2019-04-22T03:04:37.402Z,9.20
2019-04-22T03:07:12.720Z,9.20
2019-04-22T03:09:47.697Z,9.10
2019-04-22T03:12:29.242Z,9.10
2019-04-22T03:20:01.902Z,9.00
2019-04-22T03:25:33.288Z,8.90
2019-04-22T03:30:45.262Z,8.90
2019-04-22T03:37:56.115Z,8.80
2019-04-22T03:42:59.690Z,8.70
2019-04-22T03:47:57.570Z,8.70
2019-04-22T03:53:09.793Z,8.60
2019-04-22T03:55:39.120Z,8.60
2019-04-22T03:57:59.686Z,8.50
2019-04-22T04:00:55.311Z,8.50
2019-04-22T04:03:11.998Z,8.50
2019-04-22T04:08:35.658Z,8.50
2019-04-22T04:10:53.507Z,8.50
2019-04-22T04:13:28.507Z,8.50
2019-04-22T04:15:55.644Z,8.50
2019-04-22T04:18:39.239Z,8.50
2019-04-22T04:26:42.407Z,8.50
2019-04-22T04:28:50.323Z,8.50
2019-04-22T04:34:04.085Z,8.50
2019-04-22T04:36:16.542Z,8.50
2019-04-22T04:38:58.434Z,8.50
2019-04-22T04:41:42.133Z,8.50
2019-04-22T04:44:01.819Z,8.60
2019-04-22T04:54:21.428Z,8.90
2019-04-22T04:56:40.596Z,9.10
2019-04-22T05:00:09.923Z,9.10
2019-04-22T05:07:09.297Z,9.10
2019-04-22T05:09:22.093Z,9.10
2019-04-22T05:14:24.745Z,9.20
2019-04-22T05:19:33.382Z,9.30
2019-04-22T05:22:14.821Z,9.40
2019-04-22T05:27:16.356Z,9.50
2019-04-22T05:29:46.510Z,9.60
2019-04-22T05:32:14.087Z,9.60
2019-04-22T05:37:20.692Z,9.70
2019-04-22T05:39:49.635Z,9.70
2019-04-22T05:42:17.913Z,9.80
2019-04-22T05:44:55.183Z,9.90
2019-04-22T05:47:26.102Z,10.10
2019-04-22T05:49:54.696Z,10.20
2019-04-22T05:52:36.020Z,10.60
2019-04-22T05:55:08.208Z,10.70
2019-04-22T05:57:37.239Z,10.90
2019-04-22T06:00:18.255Z,11.20
2019-04-22T06:05:17.546Z,11.70
2019-04-22T06:07:55.124Z,11.80
2019-04-22T06:10:37.593Z,11.90
2019-04-22T06:12:57.765Z,12.00
2019-04-22T06:15:32.822Z,12.10
2019-04-22T06:18:09.474Z,12.20
2019-04-22T06:20:53.925Z,12.40
2019-04-22T06:28:40.697Z,13.10
2019-04-22T06:31:13.925Z,13.30
2019-04-22T06:33:56.746Z,13.50
2019-04-22T06:36:37.521Z,13.70
2019-04-22T06:39:10.311Z,13.90
2019-04-22T06:42:07.934Z,14.10
2019-04-22T06:44:43.095Z,14.30
2019-04-22T06:47:22.287Z,14.50
2019-04-22T06:49:53.059Z,14.70
2019-04-22T06:52:18.322Z,14.90
2019-04-22T06:54:54.797Z,15.10
2019-04-22T06:57:25.571Z,15.30
2019-04-22T07:00:08.309Z,15.50
2019-04-22T07:02:45.220Z,15.70
2019-04-22T07:05:08.290Z,16.10
2019-04-22T07:07:40.317Z,16.30
2019-04-22T07:10:23.619Z,16.70
2019-04-22T07:12:47.223Z,17.00
2019-04-22T07:15:40.012Z,17.40
2019-04-22T07:20:23.790Z,18.10
2019-04-22T07:22:59.438Z,18.50
2019-04-22T07:25:32.783Z,18.80
2019-04-22T07:28:01.041Z,19.10
2019-04-22T07:30:35.040Z,19.40
2019-04-22T07:35:47.574Z,19.80
2019-04-22T07:38:22.279Z,20.00
2019-04-22T07:40:51.999Z,20.50
2019-04-22T07:43:32.476Z,20.70
2019-04-22T07:45:48.909Z,20.80
2019-04-22T07:48:33.244Z,20.80
2019-04-22T07:53:29.010Z,21.10
2019-04-22T07:56:01.916Z,21.30
2019-04-22T07:58:36.098Z,21.50
2019-04-22T08:01:12.363Z,21.60
2019-04-22T08:03:53.290Z,21.80
2019-04-22T08:08:45.574Z,22.20
2019-04-22T08:11:31.077Z,22.50
2019-04-22T08:13:46.997Z,22.60
2019-04-22T08:16:23.589Z,22.90
2019-04-22T08:19:03.146Z,23.10
2019-04-22T08:21:25.207Z,22.70
2019-04-22T08:24:01.164Z,22.60
2019-04-22T08:26:32.113Z,22.50
2019-04-22T08:29:08.133Z,22.40
2019-04-22T08:31:40.074Z,22.50
2019-04-22T08:34:14.295Z,22.60
2019-04-22T08:36:54.047Z,22.80
2019-04-22T08:39:19.509Z,23.20
2019-04-22T08:41:39.801Z,23.30
2019-04-22T08:44:37.735Z,23.40
2019-04-22T08:46:57.859Z,23.40
2019-04-22T08:49:30.682Z,23.30
2019-04-22T08:52:03.896Z,23.40
2019-04-22T08:54:29.741Z,23.60
2019-04-22T08:57:12.513Z,23.40
2019-04-22T08:59:36.939Z,23.50
2019-04-22T09:02:16.332Z,23.50
2019-04-22T09:04:45.054Z,23.60
2019-04-22T09:10:01.959Z,23.90
2019-04-22T09:12:23.812Z,23.80
2019-04-22T09:15:06.281Z,23.60
2019-04-22T09:17:41.435Z,23.80
2019-04-22T09:20:00.388Z,24.00
2019-04-22T09:22:26.635Z,24.20
2019-04-22T09:25:03.711Z,24.20
2019-04-22T09:27:41.245Z,24.20
2019-04-22T09:30:16.913Z,24.20
2019-04-22T09:32:52.378Z,24.30
2019-04-22T09:35:21.478Z,24.20
2019-04-22T09:37:57.273Z,24.10
2019-04-22T09:40:35.184Z,24.20
2019-04-22T09:42:56.061Z,24.10
2019-04-22T09:45:31.963Z,24.20
2019-04-22T09:48:08.656Z,24.40
2019-04-22T09:53:51.509Z,24.80
2019-04-22T09:56:18.094Z,25.10
2019-04-22T09:58:55.667Z,25.20
2019-04-22T10:01:59.441Z,25.10
2019-04-22T10:04:07.160Z,24.90
2019-04-22T10:06:54.667Z,25.20
2019-04-22T10:09:56.159Z,25.40
2019-04-22T10:12:02.614Z,25.60
2019-04-22T10:14:54.210Z,25.60
2019-04-22T10:17:26.162Z,25.70
2019-04-22T10:20:04.080Z,25.90
2019-04-22T10:22:39.483Z,26.20
2019-04-22T10:25:21.440Z,26.20
2019-04-22T10:27:59.950Z,26.20
2019-04-22T10:30:39.071Z,26.20
2019-04-22T10:33:08.810Z,26.40
2019-04-22T10:35:20.958Z,26.80
2019-04-22T10:38:24.532Z,26.80
2019-04-22T10:41:02.403Z,26.80
2019-04-22T10:43:36.981Z,26.80
2019-04-22T10:46:10.525Z,26.70
2019-04-22T10:52:27.619Z,27.10
2019-04-22T10:55:09.552Z,27.30
2019-04-22T10:58:49.040Z,27.50
2019-04-22T11:04:32.236Z,27.60
2019-04-22T11:07:10.499Z,27.30
2019-04-22T11:09:57.144Z,27.20
2019-04-22T11:12:26.552Z,27.30
2019-04-22T11:14:55.867Z,27.60
2019-04-22T11:17:26.910Z,27.70
2019-04-22T11:19:59.537Z,28.10
2019-04-22T11:22:36.838Z,28.30
2019-04-22T11:25:07.679Z,28.30
2019-04-22T11:27:39.035Z,28.40
2019-04-22T11:30:11.145Z,28.50
2019-04-22T11:32:44.837Z,28.60
2019-04-22T11:35:16.755Z,28.40
2019-04-22T11:37:48.661Z,28.20
2019-04-22T11:40:28.748Z,28.20
2019-04-22T11:43:17.310Z,28.20
2019-04-22T11:45:29.136Z,28.10
2019-04-22T11:48:03.653Z,28.00
2019-04-22T11:50:35.748Z,28.00
2019-04-22T11:53:16.709Z,28.00
2019-04-22T11:55:55.084Z,28.00
2019-04-22T11:58:30.656Z,27.90
2019-04-22T12:01:06.509Z,28.00
2019-04-22T12:03:49.284Z,28.10
2019-04-22T12:06:22.146Z,28.00
2019-04-22T12:08:55.394Z,27.90
2019-04-22T12:11:40.864Z,28.00
2019-04-22T12:14:50.425Z,28.50
2019-04-22T12:17:26.518Z,29.20
2019-04-22T12:20:08.339Z,30.10
2019-04-22T12:22:38.990Z,31.00
2019-04-22T12:25:32.358Z,31.00
2019-04-22T12:27:57.032Z,32.20
2019-04-22T12:30:34.999Z,32.00
2019-04-22T12:33:11.035Z,31.20
2019-04-22T12:35:46.876Z,31.20
2019-04-22T12:38:18.953Z,32.10
2019-04-22T12:40:56.419Z,32.20
2019-04-22T12:43:26.493Z,32.50
2019-04-22T12:46:32.398Z,32.70
2019-04-22T12:49:04.512Z,32.30
2019-04-22T12:51:38.758Z,31.50
2019-04-22T12:54:10.993Z,30.70
2019-04-22T12:57:10.320Z,30.30
2019-04-22T12:59:45.640Z,29.80
2019-04-22T13:02:18.777Z,30.30
2019-04-22T13:04:58.197Z,30.70
2019-04-22T13:07:31.874Z,31.20
2019-04-22T13:10:05.962Z,30.80
2019-04-22T13:12:40.372Z,30.40
2019-04-22T13:15:14.135Z,30.70
2019-04-22T13:18:01.057Z,30.70
2019-04-22T13:20:26.209Z,30.70
2019-04-22T13:23:07.572Z,30.20
2019-04-22T13:25:47.349Z,30.20
2019-04-22T13:28:40.955Z,30.20
2019-04-22T13:31:22.908Z,29.90
2019-04-22T13:34:09.575Z,29.60
2019-04-22T13:36:32.319Z,29.40
2019-04-22T13:39:04.859Z,29.20
2019-04-22T13:41:44.270Z,29.00
2019-04-22T13:44:12.792Z,28.80
2019-04-22T13:47:02.084Z,28.60
2019-04-22T13:49:56.596Z,28.50
2019-04-22T13:52:20.704Z,28.60
2019-04-22T13:57:20.116Z,28.70
2019-04-22T13:59:43.019Z,28.80
2019-04-22T14:02:40.245Z,28.90
2019-04-22T14:05:15.238Z,28.80
2019-04-22T14:07:54.849Z,28.90
2019-04-22T14:10:26.990Z,28.90
2019-04-22T14:13:03.884Z,28.80
2019-04-22T14:15:40.248Z,29.00
2019-04-22T14:18:19.082Z,29.10
2019-04-22T14:20:51.115Z,28.90
2019-04-22T14:23:32.984Z,28.90
2019-04-22T14:26:07.215Z,28.90
2019-04-22T14:28:39.518Z,29.00
2019-04-22T14:31:20.400Z,28.90
2019-04-22T14:33:55.814Z,28.70
2019-04-22T14:36:33.367Z,28.40
2019-04-22T14:39:06.175Z,28.30
2019-04-22T14:41:55.116Z,28.10
2019-04-22T14:47:09.325Z,27.80
2019-04-22T14:49:54.332Z,27.60
2019-04-22T14:52:27.771Z,27.30
2019-04-22T14:54:51.987Z,27.00
2019-04-22T14:57:37.485Z,26.90
2019-04-22T15:02:37.539Z,26.70
2019-04-22T15:03:36.593Z,26.80
2019-04-22T15:09:52.113Z,27.00
2019-04-22T15:14:17.277Z,27.00
2019-04-22T15:16:02.701Z,27.10
2019-04-22T15:20:21.608Z,27.10
2019-04-22T15:21:58.732Z,27.10
2019-04-22T15:24:54.539Z,27.10
2019-04-22T15:28:33.405Z,27.00
2019-04-22T15:31:35.370Z,26.80
2019-04-22T15:34:16.378Z,26.80
2019-04-22T15:36:56.048Z,26.70
2019-04-22T15:39:29.211Z,26.50
2019-04-22T15:42:20.926Z,26.50
2019-04-22T15:44:53.903Z,26.50
2019-04-22T15:47:37.751Z,26.30
2019-04-22T15:50:10.108Z,26.30
2019-04-22T15:52:49.110Z,26.30
2019-04-22T15:55:14.615Z,26.30
2019-04-22T15:57:45.824Z,26.20
2019-04-22T16:00:29.336Z,26.20
2019-04-22T16:02:49.894Z,26.20
2019-04-22T16:05:20.833Z,26.10
2019-04-22T16:07:53.033Z,26.10
2019-04-22T16:10:24.142Z,26.10
2019-04-22T16:13:07.326Z,26.10
2019-04-22T16:15:31.739Z,26.10
2019-04-22T16:18:04.726Z,26.00
2019-04-22T16:20:36.337Z,26.00
2019-04-22T16:23:29.770Z,26.00
2019-04-22T16:26:07.546Z,25.90
2019-04-22T16:28:39.761Z,25.80
2019-04-22T16:31:11.274Z,25.70
2019-04-22T16:33:47.691Z,25.60
2019-04-22T16:36:16.941Z,25.50
2019-04-22T16:38:49.020Z,25.50
2019-04-22T16:41:21.164Z,25.40
2019-04-22T16:43:52.558Z,25.30
2019-04-22T16:46:23.593Z,25.20
2019-04-22T16:48:55.840Z,25.10
2019-04-22T16:51:27.647Z,25.10
2019-04-22T16:54:36.891Z,25.00
2019-04-22T16:57:08.132Z,24.90
2019-04-22T16:59:40.350Z,25.00
2019-04-22T17:02:41.720Z,24.90
2019-04-22T17:05:31.504Z,24.90
2019-04-22T17:08:02.512Z,24.90
2019-04-22T17:10:33.993Z,24.70
2019-04-22T17:13:10.996Z,24.70
2019-04-22T17:15:37.616Z,24.70
2019-04-22T17:18:09.581Z,24.70
2019-04-22T17:20:42.566Z,24.60
2019-04-22T17:23:13.980Z,24.50
2019-04-22T17:25:44.911Z,24.60
2019-04-22T17:28:15.725Z,24.40
2019-04-22T17:30:47.813Z,24.40
2019-04-22T17:33:18.916Z,24.20
2019-04-22T17:35:51.012Z,24.10
2019-04-22T17:38:31.043Z,24.00
2019-04-22T17:41:07.722Z,24.00
2019-04-22T17:43:54.236Z,23.90
2019-04-22T17:46:29.196Z,23.80
2019-04-22T17:49:10.457Z,23.60
2019-04-22T17:52:04.539Z,23.50
2019-04-22T17:54:40.686Z,23.40
2019-04-22T17:57:09.496Z,23.40
2019-04-22T17:59:44.204Z,23.30
2019-04-22T18:02:11.545Z,23.20
2019-04-22T18:04:33.745Z,23.10
2019-04-22T18:07:26.961Z,23.10
2019-04-22T18:10:16.495Z,23.00
2019-04-22T18:12:33.505Z,22.90
2019-04-22T18:15:16.305Z,22.80
2019-04-22T18:17:35.426Z,22.80
2019-04-22T18:20:02.665Z,22.70
2019-04-22T18:22:29.417Z,22.40
2019-04-22T18:25:02.179Z,22.40
2019-04-22T18:30:18.028Z,22.20
2019-04-22T18:32:55.629Z,22.00
2019-04-22T18:35:26.497Z,21.90
2019-04-22T18:38:11.296Z,21.90
2019-04-22T18:40:37.283Z,21.80
2019-04-22T18:43:17.104Z,21.70
2019-04-22T18:45:57.524Z,21.70
2019-04-22T18:48:12.718Z,21.70
2019-04-22T18:51:06.482Z,21.60
2019-04-22T18:53:54.070Z,21.50
2019-04-22T18:57:15.600Z,21.50
2019-04-22T18:59:39.159Z,21.30
2019-04-22T19:03:00.708Z,21.20
2019-04-22T19:05:26.478Z,21.10
2019-04-22T19:08:13.730Z,21.20
2019-04-22T19:16:09.746Z,21.00
2019-04-22T19:21:12.168Z,20.90
2019-04-22T19:23:44.999Z,20.80
2019-04-22T19:26:35.769Z,20.80
2019-04-22T19:29:03.918Z,20.80
2019-04-22T19:31:43.937Z,20.70
2019-04-22T19:34:30.831Z,20.60
2019-04-22T19:37:18.042Z,20.50
2019-04-22T19:40:09.571Z,20.40
2019-04-22T19:42:43.181Z,20.30
2019-04-22T19:45:17.529Z,20.20
2019-04-22T19:47:59.877Z,20.10
2019-04-22T19:50:46.885Z,20.10
2019-04-22T19:53:27.736Z,20.10
2019-04-22T19:55:52.305Z,19.90
2019-04-22T19:58:53.151Z,19.70
2019-04-22T20:02:00.929Z,19.60
2019-04-22T20:04:52.769Z,19.50
2019-04-22T20:07:15.383Z,19.50
2019-04-22T20:10:00.069Z,19.30
2019-04-22T20:12:30.594Z,19.30
2019-04-22T20:15:07.973Z,19.30
2019-04-22T20:17:44.087Z,19.20
2019-04-22T20:20:31.468Z,19.10
2019-04-22T20:22:57.505Z,19.00
2019-04-22T20:25:34.775Z,18.90
2019-04-22T20:28:13.198Z,18.80
2019-04-22T20:30:47.865Z,18.70
2019-04-22T20:33:29.471Z,18.80
2019-04-22T20:42:45.425Z,18.70
2019-04-22T20:45:13.084Z,18.50
2019-04-22T20:47:45.480Z,18.50
2019-04-22T20:50:29.633Z,18.40
2019-04-22T20:53:06.827Z,18.30
2019-04-22T20:55:30.902Z,18.30
2019-04-22T20:58:12.238Z,18.40
2019-04-22T21:00:36.207Z,18.40
2019-04-22T21:03:07.322Z,18.30
2019-04-22T21:05:47.132Z,18.30
2019-04-22T21:08:33.437Z,18.20
2019-04-22T21:10:52.957Z,18.10
2019-04-22T21:13:30.547Z,18.10
2019-04-22T21:16:18.394Z,18.10
2019-04-22T21:18:44.648Z,18.10
2019-04-22T21:21:36.279Z,18.10
2019-04-22T21:23:54.213Z,17.90
2019-04-22T21:26:33.586Z,17.80
2019-04-22T21:29:03.305Z,18.00
2019-04-22T21:31:39.934Z,18.00
2019-04-22T21:34:15.327Z,18.00
2019-04-22T21:36:48.854Z,17.90
2019-04-22T21:39:15.571Z,17.80
2019-04-22T21:41:47.563Z,17.90
2019-04-22T21:44:18.391Z,17.90
2019-04-22T21:47:03.370Z,17.90
2019-04-22T21:49:29.626Z,17.90
2019-04-22T21:52:00.187Z,17.70
2019-04-22T21:54:36.603Z,17.80
2019-04-22T21:57:24.190Z,17.80
2019-04-22T21:59:57.935Z,17.80
2019-04-22T22:02:28.475Z,17.60
2019-04-22T22:04:58.702Z,17.60
2019-04-22T22:07:18.119Z,17.60
2019-04-22T22:10:04.191Z,17.60
2019-04-22T22:12:43.576Z,17.50
2019-04-22T22:15:13.104Z,17.50
2019-04-22T22:17:51.532Z,17.30
2019-04-22T22:20:24.219Z,17.20
2019-04-22T22:23:09.098Z,17.20
2019-04-22T22:25:35.011Z,17.10
2019-04-22T22:28:17.088Z,17.10
2019-04-22T22:30:58.346Z,17.10
2019-04-22T22:33:17.371Z,17.00
2019-04-22T22:35:45.762Z,17.00
2019-04-22T22:38:23.039Z,16.90
2019-04-22T22:40:43.912Z,16.80
2019-04-22T22:43:29.953Z,16.70
2019-04-22T22:46:05.915Z,16.70
2019-04-22T22:48:51.415Z,16.70
2019-04-22T22:51:30.695Z,16.70
2019-04-22T22:53:58.138Z,16.60
2019-04-22T22:56:38.982Z,16.60
2019-04-22T22:59:03.476Z,16.50
2019-04-22T23:01:58.560Z,16.50
2019-04-22T23:04:43.054Z,16.40
2019-04-22T23:07:17.899Z,16.30
2019-04-22T23:09:47.206Z,16.40
2019-04-22T23:12:31.268Z,16.30
2019-04-22T23:14:49.557Z,16.20
2019-04-22T23:17:07.892Z,16.10
2019-04-22T23:19:42.006Z,16.10
2019-04-22T23:22:20.493Z,16.10
2019-04-22T23:25:14.330Z,16.10
2019-04-22T23:27:54.009Z,16.00
2019-04-22T23:30:38.321Z,15.90
2019-04-22T23:33:22.991Z,15.80
2019-04-22T23:35:51.878Z,15.80
2019-04-22T23:38:31.900Z,15.80
2019-04-22T23:41:05.696Z,15.90
2019-04-22T23:43:53.781Z,15.90
2019-04-22T23:46:13.189Z,15.80
2019-04-22T23:48:39.123Z,15.70
2019-04-22T23:51:19.329Z,15.70
2019-04-22T23:56:26.633Z,15.60
2019-04-22T23:59:02.966Z,15.40
